Aérodrome :
LOGIN :

S'inscrire | Disclaimer

   EN    FR    IT 

 










Légende :    VFR   VFR Marginal   IFR   IFR Intensif   IFR Très Intensif
Visi : 
Plafond : 
>= 8 km
>= 3000ft
5 à 8 km
1000 à 3000 ft
1500m à 5 km
500 à 1000 ft
800 à 1500m
200 à 500 ft
< 800m
< 200 ft
Symboles :   Orages  Brouillard  Fortes neiges  Fortes précipitations  Vent > 20 kt
SIGMETs :   Divers  Orages  Givrage  Turbulence  Onde Orograph.  Cendres Volcan.






- Altitude de l'aérodrome : 313 ft
- Code IATA : LEH


LFOH - Le Havre Octeville

DERNIER METAR :
  • 091330Z AUTO 35009KT CAVOK 21/09 Q1022

METARs EXPIRÉS :
  • 091300Z AUTO 35008KT CAVOK 21/11 Q1023
  • 091230Z AUTO 35007KT CAVOK 20/11 Q1023
  • 091200Z AUTO 34006KT 310V010 CAVOK 21/10 Q1023
  • 091130Z AUTO 35005KT 320V020 CAVOK 21/11 Q1023
  • 091100Z AUTO VRB04KT CAVOK 22/09 Q1023
  • 091030Z AUTO 16004KT 120V190 CAVOK 22/07 Q1023

Prévision TAF périmée.
ATIS : +33 2 35 54 64 93



MET'MAP, la Météo Aéronautique d'un coup d'oeil ! - Copyright ORBIFLY Décembre 2007 - Disclaimer

ORBIFLY MET'MAP TEAM :

Programmation & Développement : Alexandra Zaïnal
Sur une idée originale de : Baudouin d'Aumeries
Assistance à la programmation : Marc-Olivier Méhu
Soutien technique & logistique : Manuel Goepfert

Contact : metmap@orbifly.com




SOURCES & CREDITS :

   NOAA